sensor_id;sensor_type;location;lat;lon;timestamp;P1;durP1;ratioP1;P2;durP2;ratioP2
8297;SDS011;4187;42.778;23.242;2023-02-01T00:01:42;10.17;;;7.87;;
8297;SDS011;4187;42.778;23.242;2023-02-01T00:04:08;10.57;;;8.40;;
8297;SDS011;4187;42.778;23.242;2023-02-01T00:06:35;8.77;;;7.77;;
8297;SDS011;4187;42.778;23.242;2023-02-01T00:09:01;7.47;;;6.73;;
8297;SDS011;4187;42.778;23.242;2023-02-01T00:11:29;7.20;;;6.50;;
8297;SDS011;4187;42.778;23.242;2023-02-01T00:13:56;6.83;;;6.10;;
8297;SDS011;4187;42.778;23.242;2023-02-01T00:16:23;9.80;;;6.30;;
8297;SDS011;4187;42.778;23.242;2023-02-01T00:18:50;6.60;;;5.50;;
8297;SDS011;4187;42.778;23.242;2023-02-01T00:21:17;5.77;;;5.23;;
8297;SDS011;4187;42.778;23.242;2023-02-01T00:23:44;7.37;;;5.90;;
8297;SDS011;4187;42.778;23.242;2023-02-01T00:26:12;6.80;;;5.73;;
8297;SDS011;4187;42.778;23.242;2023-02-01T00:28:41;8.10;;;5.57;;
8297;SDS011;4187;42.778;23.242;2023-02-01T00:31:08;7.43;;;5.77;;
8297;SDS011;4187;42.778;23.242;2023-02-01T00:33:34;5.30;;;4.80;;
8297;SDS011;4187;42.778;23.242;2023-02-01T00:36:02;5.67;;;4.93;;
8297;SDS011;4187;42.778;23.242;2023-02-01T00:38:29;5.77;;;5.10;;
8297;SDS011;4187;42.778;23.242;2023-02-01T00:41:01;8.57;;;7.50;;
8297;SDS011;4187;42.778;23.242;2023-02-01T00:43:28;8.60;;;7.47;;
8297;SDS011;4187;42.778;23.242;2023-02-01T00:45:56;7.00;;;6.30;;
8297;SDS011;4187;42.778;23.242;2023-02-01T00:48:22;6.77;;;5.43;;
8297;SDS011;4187;42.778;23.242;2023-02-01T00:50:49;6.07;;;5.33;;
8297;SDS011;4187;42.778;23.242;2023-02-01T00:53:15;9.13;;;5.53;;
8297;SDS011;4187;42.778;23.242;2023-02-01T00:55:44;5.90;;;5.27;;
8297;SDS011;4187;42.778;23.242;2023-02-01T00:58:10;6.47;;;4.73;;
8297;SDS011;4187;42.778;23.242;2023-02-01T01:00:37;6.63;;;5.10;;
8297;SDS011;4187;42.778;23.242;2023-02-01T01:03:05;4.77;;;4.27;;
8297;SDS011;4187;42.778;23.242;2023-02-01T01:05:43;5.97;;;4.83;;
8297;SDS011;4187;42.778;23.242;2023-02-01T01:08:09;5.97;;;4.87;;
8297;SDS011;4187;42.778;23.242;2023-02-01T01:10:36;6.17;;;5.03;;
8297;SDS011;4187;42.778;23.242;2023-02-01T01:13:02;8.90;;;7.03;;
8297;SDS011;4187;42.778;23.242;2023-02-01T01:15:29;7.40;;;5.93;;
8297;SDS011;4187;42.778;23.242;2023-02-01T01:17:55;7.60;;;5.33;;
8297;SDS011;4187;42.778;23.242;2023-02-01T01:20:23;8.07;;;6.27;;
8297;SDS011;4187;42.778;23.242;2023-02-01T01:22:50;6.70;;;5.87;;
8297;SDS011;4187;42.778;23.242;2023-02-01T01:25:16;12.00;;;8.73;;
8297;SDS011;4187;42.778;23.242;2023-02-01T01:27:43;8.10;;;6.53;;
8297;SDS011;4187;42.778;23.242;2023-02-01T01:30:10;8.30;;;5.83;;
8297;SDS011;4187;42.778;23.242;2023-02-01T01:32:36;11.03;;;6.13;;
8297;SDS011;4187;42.778;23.242;2023-02-01T01:35:03;6.23;;;5.37;;
8297;SDS011;4187;42.778;23.242;2023-02-01T01:37:31;4.43;;;4.03;;
8297;SDS011;4187;42.778;23.242;2023-02-01T01:39:57;7.30;;;4.10;;
8297;SDS011;4187;42.778;23.242;2023-02-01T01:42:24;5.37;;;4.23;;
8297;SDS011;4187;42.778;23.242;2023-02-01T01:44:58;5.83;;;4.27;;
8297;SDS011;4187;42.778;23.242;2023-02-01T01:47:25;4.60;;;3.63;;
8297;SDS011;4187;42.778;23.242;2023-02-01T01:49:51;6.07;;;3.60;;
8297;SDS011;4187;42.778;23.242;2023-02-01T01:52:18;6.63;;;3.43;;
8297;SDS011;4187;42.778;23.242;2023-02-01T01:54:48;5.43;;;3.60;;
8297;SDS011;4187;42.778;23.242;2023-02-01T01:57:16;6.20;;;3.70;;
8297;SDS011;4187;42.778;23.242;2023-02-01T01:59:46;7.77;;;3.57;;
8297;SDS011;4187;42.778;23.242;2023-02-01T02:02:13;5.03;;;4.10;;
8297;SDS011;4187;42.778;23.242;2023-02-01T02:04:40;6.63;;;3.50;;
8297;SDS011;4187;42.778;23.242;2023-02-01T02:07:08;4.40;;;4.00;;
8297;SDS011;4187;42.778;23.242;2023-02-01T02:09:36;13.93;;;8.60;;
8297;SDS011;4187;42.778;23.242;2023-02-01T02:12:04;17.43;;;9.10;;
8297;SDS011;4187;42.778;23.242;2023-02-01T02:14:31;12.10;;;9.07;;
8297;SDS011;4187;42.778;23.242;2023-02-01T02:17:10;17.27;;;10.17;;
8297;SDS011;4187;42.778;23.242;2023-02-01T02:22:32;21.50;;;12.50;;
8297;SDS011;4187;42.778;23.242;2023-02-01T02:27:46;9.40;;;7.00;;
8297;SDS011;4187;42.778;23.242;2023-02-01T02:33:24;16.67;;;11.47;;
8297;SDS011;4187;42.778;23.242;2023-02-01T02:35:54;13.23;;;8.97;;
8297;SDS011;4187;42.778;23.242;2023-02-01T02:38:25;9.70;;;7.33;;
8297;SDS011;4187;42.778;23.242;2023-02-01T02:40:55;10.00;;;8.43;;
8297;SDS011;4187;42.778;23.242;2023-02-01T02:43:27;8.67;;;6.47;;
8297;SDS011;4187;42.778;23.242;2023-02-01T02:46:15;10.10;;;7.23;;
8297;SDS011;4187;42.778;23.242;2023-02-01T02:49:03;6.40;;;5.53;;
8297;SDS011;4187;42.778;23.242;2023-02-01T02:51:32;8.43;;;5.63;;
8297;SDS011;4187;42.778;23.242;2023-02-01T02:54:18;6.93;;;5.60;;
8297;SDS011;4187;42.778;23.242;2023-02-01T02:57:03;6.80;;;5.80;;
8297;SDS011;4187;42.778;23.242;2023-02-01T02:59:48;6.83;;;5.33;;
8297;SDS011;4187;42.778;23.242;2023-02-01T03:02:32;10.30;;;5.80;;
8297;SDS011;4187;42.778;23.242;2023-02-01T03:05:18;6.00;;;5.40;;
8297;SDS011;4187;42.778;23.242;2023-02-01T03:10:35;5.67;;;4.70;;
8297;SDS011;4187;42.778;23.242;2023-02-01T03:13:04;14.07;;;8.17;;
8297;SDS011;4187;42.778;23.242;2023-02-01T03:15:32;11.20;;;6.20;;
8297;SDS011;4187;42.778;23.242;2023-02-01T03:18:00;13.27;;;7.90;;
8297;SDS011;4187;42.778;23.242;2023-02-01T03:20:29;8.57;;;6.53;;
8297;SDS011;4187;42.778;23.242;2023-02-01T03:22:56;9.53;;;6.93;;
8297;SDS011;4187;42.778;23.242;2023-02-01T03:25:25;8.60;;;7.27;;
8297;SDS011;4187;42.778;23.242;2023-02-01T03:27:53;7.70;;;7.00;;
8297;SDS011;4187;42.778;23.242;2023-02-01T03:30:21;9.87;;;7.60;;
8297;SDS011;4187;42.778;23.242;2023-02-01T03:32:49;7.77;;;6.63;;
8297;SDS011;4187;42.778;23.242;2023-02-01T03:35:26;7.87;;;7.07;;
8297;SDS011;4187;42.778;23.242;2023-02-01T03:37:56;7.67;;;6.87;;
8297;SDS011;4187;42.778;23.242;2023-02-01T03:40:27;6.47;;;5.60;;
8297;SDS011;4187;42.778;23.242;2023-02-01T03:42:57;6.57;;;4.90;;
8297;SDS011;4187;42.778;23.242;2023-02-01T03:45:26;6.57;;;4.43;;
8297;SDS011;4187;42.778;23.242;2023-02-01T03:47:54;6.97;;;4.10;;
8297;SDS011;4187;42.778;23.242;2023-02-01T03:50:22;5.73;;;4.73;;
8297;SDS011;4187;42.778;23.242;2023-02-01T03:52:51;5.23;;;3.83;;
8297;SDS011;4187;42.778;23.242;2023-02-01T03:55:22;4.80;;;4.03;;
8297;SDS011;4187;42.778;23.242;2023-02-01T03:57:50;3.77;;;3.37;;
8297;SDS011;4187;42.778;23.242;2023-02-01T04:00:18;5.53;;;3.50;;
8297;SDS011;4187;42.778;23.242;2023-02-01T04:02:46;4.93;;;3.10;;
8297;SDS011;4187;42.778;23.242;2023-02-01T04:05:13;5.37;;;3.53;;
8297;SDS011;4187;42.778;23.242;2023-02-01T04:07:39;5.23;;;3.10;;
8297;SDS011;4187;42.778;23.242;2023-02-01T04:10:06;3.10;;;2.80;;
8297;SDS011;4187;42.778;23.242;2023-02-01T04:12:35;3.93;;;3.30;;
8297;SDS011;4187;42.778;23.242;2023-02-01T04:15:01;7.60;;;3.23;;
8297;SDS011;4187;42.778;23.242;2023-02-01T04:17:28;3.53;;;3.20;;
8297;SDS011;4187;42.778;23.242;2023-02-01T04:19:54;4.30;;;2.67;;
8297;SDS011;4187;42.778;23.242;2023-02-01T04:22:21;3.30;;;2.70;;
8297;SDS011;4187;42.778;23.242;2023-02-01T04:24:48;3.60;;;2.90;;
8297;SDS011;4187;42.778;23.242;2023-02-01T04:27:14;3.07;;;2.60;;
8297;SDS011;4187;42.778;23.242;2023-02-01T04:29:42;3.57;;;2.50;;
8297;SDS011;4187;42.778;23.242;2023-02-01T04:32:10;2.57;;;2.37;;
8297;SDS011;4187;42.778;23.242;2023-02-01T04:34:36;3.43;;;2.70;;
8297;SDS011;4187;42.778;23.242;2023-02-01T04:37:03;4.03;;;3.13;;
8297;SDS011;4187;42.778;23.242;2023-02-01T04:39:29;4.00;;;3.33;;
8297;SDS011;4187;42.778;23.242;2023-02-01T04:41:56;4.33;;;2.80;;
8297;SDS011;4187;42.778;23.242;2023-02-01T04:44:22;3.97;;;3.17;;
8297;SDS011;4187;42.778;23.242;2023-02-01T04:46:50;5.30;;;2.77;;
8297;SDS011;4187;42.778;23.242;2023-02-01T04:49:17;3.73;;;3.10;;
8297;SDS011;4187;42.778;23.242;2023-02-01T04:51:45;3.17;;;2.83;;
8297;SDS011;4187;42.778;23.242;2023-02-01T04:54:12;4.27;;;3.07;;
8297;SDS011;4187;42.778;23.242;2023-02-01T04:56:39;5.00;;;2.97;;
8297;SDS011;4187;42.778;23.242;2023-02-01T04:59:06;5.47;;;3.10;;
8297;SDS011;4187;42.778;23.242;2023-02-01T05:01:32;6.37;;;2.97;;
8297;SDS011;4187;42.778;23.242;2023-02-01T05:04:00;6.30;;;3.17;;
8297;SDS011;4187;42.778;23.242;2023-02-01T05:06:27;4.10;;;3.40;;
8297;SDS011;4187;42.778;23.242;2023-02-01T05:08:53;4.80;;;3.23;;
8297;SDS011;4187;42.778;23.242;2023-02-01T05:11:20;4.17;;;3.27;;
8297;SDS011;4187;42.778;23.242;2023-02-01T05:14:00;4.97;;;2.97;;
8297;SDS011;4187;42.778;23.242;2023-02-01T05:16:27;3.97;;;2.93;;
8297;SDS011;4187;42.778;23.242;2023-02-01T05:18:53;3.33;;;3.00;;
8297;SDS011;4187;42.778;23.242;2023-02-01T05:21:21;6.83;;;3.03;;
8297;SDS011;4187;42.778;23.242;2023-02-01T05:23:48;4.37;;;3.07;;
8297;SDS011;4187;42.778;23.242;2023-02-01T05:26:32;5.07;;;2.67;;
8297;SDS011;4187;42.778;23.242;2023-02-01T05:28:58;5.87;;;3.20;;
8297;SDS011;4187;42.778;23.242;2023-02-01T05:31:25;6.67;;;3.40;;
8297;SDS011;4187;42.778;23.242;2023-02-01T05:33:51;5.10;;;2.93;;
8297;SDS011;4187;42.778;23.242;2023-02-01T05:36:18;5.87;;;3.60;;
8297;SDS011;4187;42.778;23.242;2023-02-01T05:38:46;5.20;;;3.27;;
8297;SDS011;4187;42.778;23.242;2023-02-01T05:41:12;5.23;;;2.90;;
8297;SDS011;4187;42.778;23.242;2023-02-01T05:43:39;4.37;;;2.90;;
8297;SDS011;4187;42.778;23.242;2023-02-01T05:46:05;5.80;;;2.80;;
8297;SDS011;4187;42.778;23.242;2023-02-01T05:48:32;4.70;;;2.93;;
8297;SDS011;4187;42.778;23.242;2023-02-01T05:50:58;4.93;;;3.00;;
8297;SDS011;4187;42.778;23.242;2023-02-01T05:53:25;6.93;;;2.77;;
8297;SDS011;4187;42.778;23.242;2023-02-01T05:55:53;6.73;;;3.40;;
8297;SDS011;4187;42.778;23.242;2023-02-01T05:58:19;6.60;;;3.13;;
8297;SDS011;4187;42.778;23.242;2023-02-01T06:00:46;3.07;;;2.60;;
8297;SDS011;4187;42.778;23.242;2023-02-01T06:03:12;5.10;;;2.70;;
8297;SDS011;4187;42.778;23.242;2023-02-01T06:05:39;4.90;;;3.77;;
8297;SDS011;4187;42.778;23.242;2023-02-01T06:08:05;5.47;;;3.43;;
8297;SDS011;4187;42.778;23.242;2023-02-01T06:10:32;7.03;;;4.20;;
8297;SDS011;4187;42.778;23.242;2023-02-01T06:13:00;5.17;;;3.43;;
8297;SDS011;4187;42.778;23.242;2023-02-01T06:15:28;5.33;;;3.37;;
8297;SDS011;4187;42.778;23.242;2023-02-01T06:17:54;4.60;;;3.10;;
8297;SDS011;4187;42.778;23.242;2023-02-01T06:20:21;3.83;;;3.33;;
8297;SDS011;4187;42.778;23.242;2023-02-01T06:22:48;3.93;;;3.17;;
8297;SDS011;4187;42.778;23.242;2023-02-01T06:25:14;6.77;;;3.33;;
8297;SDS011;4187;42.778;23.242;2023-02-01T06:27:41;3.00;;;2.67;;
8297;SDS011;4187;42.778;23.242;2023-02-01T06:30:11;4.17;;;2.73;;
8297;SDS011;4187;42.778;23.242;2023-02-01T06:32:38;3.57;;;3.10;;
8297;SDS011;4187;42.778;23.242;2023-02-01T06:35:06;4.50;;;2.93;;
8297;SDS011;4187;42.778;23.242;2023-02-01T06:37:32;5.30;;;2.77;;
8297;SDS011;4187;42.778;23.242;2023-02-01T06:39:59;6.80;;;2.17;;
8297;SDS011;4187;42.778;23.242;2023-02-01T06:42:25;5.43;;;2.50;;
8297;SDS011;4187;42.778;23.242;2023-02-01T06:44:52;5.27;;;2.63;;
8297;SDS011;4187;42.778;23.242;2023-02-01T06:47:20;3.87;;;2.87;;
8297;SDS011;4187;42.778;23.242;2023-02-01T06:49:47;4.60;;;2.97;;
8297;SDS011;4187;42.778;23.242;2023-02-01T06:52:13;5.77;;;3.77;;
8297;SDS011;4187;42.778;23.242;2023-02-01T06:54:40;2.93;;;2.30;;
8297;SDS011;4187;42.778;23.242;2023-02-01T06:57:06;5.87;;;2.57;;
8297;SDS011;4187;42.778;23.242;2023-02-01T06:59:33;6.20;;;2.90;;
8297;SDS011;4187;42.778;23.242;2023-02-01T07:01:59;3.60;;;2.60;;
8297;SDS011;4187;42.778;23.242;2023-02-01T07:04:27;3.67;;;2.23;;
8297;SDS011;4187;42.778;23.242;2023-02-01T07:06:53;3.70;;;3.10;;
8297;SDS011;4187;42.778;23.242;2023-02-01T07:09:20;4.27;;;2.80;;
8297;SDS011;4187;42.778;23.242;2023-02-01T07:11:47;5.50;;;2.67;;
8297;SDS011;4187;42.778;23.242;2023-02-01T07:14:13;2.50;;;2.30;;
8297;SDS011;4187;42.778;23.242;2023-02-01T07:16:40;5.30;;;2.43;;
8297;SDS011;4187;42.778;23.242;2023-02-01T07:19:06;5.00;;;2.37;;
8297;SDS011;4187;42.778;23.242;2023-02-01T07:21:34;5.03;;;2.50;;
8297;SDS011;4187;42.778;23.242;2023-02-01T07:24:00;2.97;;;2.37;;
8297;SDS011;4187;42.778;23.242;2023-02-01T07:26:27;2.63;;;2.00;;
8297;SDS011;4187;42.778;23.242;2023-02-01T07:28:53;2.97;;;2.07;;
8297;SDS011;4187;42.778;23.242;2023-02-01T07:31:20;3.17;;;2.43;;
8297;SDS011;4187;42.778;23.242;2023-02-01T07:33:47;6.33;;;2.63;;
8297;SDS011;4187;42.778;23.242;2023-02-01T07:36:16;2.87;;;2.07;;
8297;SDS011;4187;42.778;23.242;2023-02-01T07:38:44;2.60;;;2.20;;
8297;SDS011;4187;42.778;23.242;2023-02-01T07:41:11;4.13;;;2.53;;
8297;SDS011;4187;42.778;23.242;2023-02-01T07:43:38;4.27;;;2.30;;
8297;SDS011;4187;42.778;23.242;2023-02-01T07:46:05;4.30;;;2.03;;
8297;SDS011;4187;42.778;23.242;2023-02-01T07:48:31;3.40;;;2.20;;
8297;SDS011;4187;42.778;23.242;2023-02-01T07:50:59;2.70;;;1.90;;
8297;SDS011;4187;42.778;23.242;2023-02-01T07:53:25;2.30;;;2.10;;
8297;SDS011;4187;42.778;23.242;2023-02-01T07:55:53;5.67;;;3.50;;
8297;SDS011;4187;42.778;23.242;2023-02-01T07:58:21;8.63;;;4.27;;
8297;SDS011;4187;42.778;23.242;2023-02-01T08:00:47;8.63;;;5.17;;
8297;SDS011;4187;42.778;23.242;2023-02-01T08:03:31;7.33;;;5.63;;
8297;SDS011;4187;42.778;23.242;2023-02-01T08:05:58;5.57;;;4.03;;
8297;SDS011;4187;42.778;23.242;2023-02-01T08:08:24;4.70;;;3.53;;
8297;SDS011;4187;42.778;23.242;2023-02-01T08:10:51;6.50;;;4.60;;
8297;SDS011;4187;42.778;23.242;2023-02-01T08:13:20;5.33;;;4.57;;
8297;SDS011;4187;42.778;23.242;2023-02-01T08:15:47;4.97;;;4.20;;
8297;SDS011;4187;42.778;23.242;2023-02-01T08:18:13;3.87;;;3.50;;
8297;SDS011;4187;42.778;23.242;2023-02-01T08:20:41;10.67;;;6.23;;
8297;SDS011;4187;42.778;23.242;2023-02-01T08:23:10;16.80;;;10.87;;
8297;SDS011;4187;42.778;23.242;2023-02-01T08:25:37;4.60;;;3.30;;
8297;SDS011;4187;42.778;23.242;2023-02-01T08:28:04;5.90;;;3.47;;
8297;SDS011;4187;42.778;23.242;2023-02-01T08:30:31;3.13;;;2.80;;
8297;SDS011;4187;42.778;23.242;2023-02-01T08:32:58;3.10;;;2.47;;
8297;SDS011;4187;42.778;23.242;2023-02-01T08:35:26;4.67;;;2.20;;
8297;SDS011;4187;42.778;23.242;2023-02-01T08:37:52;4.60;;;2.37;;
8297;SDS011;4187;42.778;23.242;2023-02-01T08:40:19;4.30;;;3.30;;
8297;SDS011;4187;42.778;23.242;2023-02-01T08:42:46;6.10;;;3.13;;
8297;SDS011;4187;42.778;23.242;2023-02-01T08:45:19;4.27;;;3.23;;
8297;SDS011;4187;42.778;23.242;2023-02-01T08:47:48;4.87;;;3.20;;
8297;SDS011;4187;42.778;23.242;2023-02-01T08:50:14;4.53;;;2.90;;
8297;SDS011;4187;42.778;23.242;2023-02-01T08:52:41;3.87;;;2.87;;
8297;SDS011;4187;42.778;23.242;2023-02-01T08:55:08;6.37;;;3.10;;
8297;SDS011;4187;42.778;23.242;2023-02-01T08:57:35;5.37;;;2.40;;
8297;SDS011;4187;42.778;23.242;2023-02-01T09:00:01;7.50;;;2.43;;
8297;SDS011;4187;42.778;23.242;2023-02-01T09:02:28;6.30;;;3.00;;
8297;SDS011;4187;42.778;23.242;2023-02-01T09:04:56;7.20;;;3.80;;
8297;SDS011;4187;42.778;23.242;2023-02-01T09:07:23;4.53;;;3.50;;
8297;SDS011;4187;42.778;23.242;2023-02-01T09:09:49;4.80;;;2.83;;
8297;SDS011;4187;42.778;23.242;2023-02-01T09:12:16;5.53;;;3.57;;
8297;SDS011;4187;42.778;23.242;2023-02-01T09:14:42;3.67;;;2.50;;
8297;SDS011;4187;42.778;23.242;2023-02-01T09:17:09;5.57;;;3.40;;
8297;SDS011;4187;42.778;23.242;2023-02-01T09:19:35;5.23;;;3.53;;
8297;SDS011;4187;42.778;23.242;2023-02-01T09:22:03;8.60;;;4.13;;
8297;SDS011;4187;42.778;23.242;2023-02-01T09:24:30;6.57;;;3.67;;
8297;SDS011;4187;42.778;23.242;2023-02-01T09:26:56;3.87;;;2.60;;
8297;SDS011;4187;42.778;23.242;2023-02-01T09:29:23;5.33;;;3.13;;
8297;SDS011;4187;42.778;23.242;2023-02-01T09:31:49;5.30;;;3.00;;
8297;SDS011;4187;42.778;23.242;2023-02-01T09:34:16;3.80;;;2.37;;
8297;SDS011;4187;42.778;23.242;2023-02-01T09:36:43;4.40;;;2.77;;
8297;SDS011;4187;42.778;23.242;2023-02-01T09:39:10;3.70;;;2.57;;
8297;SDS011;4187;42.778;23.242;2023-02-01T09:41:42;3.83;;;2.20;;
8297;SDS011;4187;42.778;23.242;2023-02-01T09:47:11;3.20;;;2.40;;
8297;SDS011;4187;42.778;23.242;2023-02-01T09:49:39;2.70;;;2.07;;
8297;SDS011;4187;42.778;23.242;2023-02-01T09:52:11;4.37;;;2.73;;
8297;SDS011;4187;42.778;23.242;2023-02-01T09:54:41;6.83;;;4.50;;
8297;SDS011;4187;42.778;23.242;2023-02-01T09:57:10;8.37;;;6.37;;
8297;SDS011;4187;42.778;23.242;2023-02-01T09:59:39;6.53;;;5.00;;
8297;SDS011;4187;42.778;23.242;2023-02-01T10:02:10;9.33;;;5.77;;
8297;SDS011;4187;42.778;23.242;2023-02-01T10:07:29;4.40;;;3.20;;
8297;SDS011;4187;42.778;23.242;2023-02-01T10:10:03;5.17;;;4.67;;
8297;SDS011;4187;42.778;23.242;2023-02-01T10:15:22;5.60;;;2.87;;
8297;SDS011;4187;42.778;23.242;2023-02-01T10:18:00;4.23;;;3.03;;
8297;SDS011;4187;42.778;23.242;2023-02-01T10:20:30;4.30;;;3.07;;
8297;SDS011;4187;42.778;23.242;2023-02-01T10:23:06;3.53;;;2.77;;
8297;SDS011;4187;42.778;23.242;2023-02-01T10:25:36;4.17;;;2.87;;
8297;SDS011;4187;42.778;23.242;2023-02-01T10:28:06;3.83;;;2.77;;
8297;SDS011;4187;42.778;23.242;2023-02-01T10:30:37;7.27;;;2.77;;
8297;SDS011;4187;42.778;23.242;2023-02-01T10:33:12;4.63;;;3.03;;
8297;SDS011;4187;42.778;23.242;2023-02-01T10:35:40;5.40;;;2.67;;
8297;SDS011;4187;42.778;23.242;2023-02-01T10:38:07;3.23;;;1.90;;
8297;SDS011;4187;42.778;23.242;2023-02-01T10:40:38;3.13;;;2.20;;
8297;SDS011;4187;42.778;23.242;2023-02-01T10:43:05;4.23;;;1.90;;
8297;SDS011;4187;42.778;23.242;2023-02-01T10:45:32;1.83;;;1.60;;
8297;SDS011;4187;42.778;23.242;2023-02-01T10:47:59;3.90;;;2.08;;
8297;SDS011;4187;42.778;23.242;2023-02-01T10:50:31;1.85;;;1.50;;
8297;SDS011;4187;42.778;23.242;2023-02-01T10:53:00;3.03;;;1.80;;
8297;SDS011;4187;42.778;23.242;2023-02-01T10:55:32;4.30;;;1.98;;
8297;SDS011;4187;42.778;23.242;2023-02-01T10:58:01;4.75;;;1.73;;
8297;SDS011;4187;42.778;23.242;2023-02-01T11:00:28;3.05;;;1.70;;
8297;SDS011;4187;42.778;23.242;2023-02-01T11:03:00;2.03;;;1.65;;
8297;SDS011;4187;42.778;23.242;2023-02-01T11:05:27;2.53;;;1.50;;
8297;SDS011;4187;42.778;23.242;2023-02-01T11:08:12;2.30;;;1.65;;
8297;SDS011;4187;42.778;23.242;2023-02-01T11:10:40;3.00;;;1.48;;
8297;SDS011;4187;42.778;23.242;2023-02-01T11:13:11;5.07;;;1.97;;
8297;SDS011;4187;42.778;23.242;2023-02-01T11:15:42;2.95;;;1.88;;
8297;SDS011;4187;42.778;23.242;2023-02-01T11:18:15;3.97;;;1.70;;
8297;SDS011;4187;42.778;23.242;2023-02-01T11:20:41;2.78;;;1.92;;
8297;SDS011;4187;42.778;23.242;2023-02-01T11:23:12;1.90;;;1.60;;
8297;SDS011;4187;42.778;23.242;2023-02-01T11:25:40;2.08;;;1.48;;
8297;SDS011;4187;42.778;23.242;2023-02-01T11:28:14;2.55;;;1.80;;
8297;SDS011;4187;42.778;23.242;2023-02-01T11:30:42;4.03;;;2.00;;
8297;SDS011;4187;42.778;23.242;2023-02-01T11:33:12;1.88;;;1.50;;
8297;SDS011;4187;42.778;23.242;2023-02-01T11:35:39;1.70;;;1.30;;
8297;SDS011;4187;42.778;23.242;2023-02-01T11:38:13;4.03;;;1.63;;
8297;SDS011;4187;42.778;23.242;2023-02-01T11:40:44;3.70;;;1.92;;
8297;SDS011;4187;42.778;23.242;2023-02-01T11:43:13;2.50;;;1.40;;
8297;SDS011;4187;42.778;23.242;2023-02-01T11:45:41;2.63;;;1.63;;
8297;SDS011;4187;42.778;23.242;2023-02-01T11:48:19;3.25;;;1.60;;
8297;SDS011;4187;42.778;23.242;2023-02-01T11:50:46;3.03;;;1.38;;
8297;SDS011;4187;42.778;23.242;2023-02-01T11:53:24;4.05;;;1.88;;
8297;SDS011;4187;42.778;23.242;2023-02-01T11:56:07;1.42;;;1.25;;
8297;SDS011;4187;42.778;23.242;2023-02-01T12:01:27;2.33;;;1.60;;
8297;SDS011;4187;42.778;23.242;2023-02-01T12:04:05;2.67;;;2.00;;
8297;SDS011;4187;42.778;23.242;2023-02-01T12:06:41;1.52;;;1.25;;
8297;SDS011;4187;42.778;23.242;2023-02-01T12:09:29;2.55;;;1.80;;
8297;SDS011;4187;42.778;23.242;2023-02-01T12:12:00;2.45;;;1.73;;
8297;SDS011;4187;42.778;23.242;2023-02-01T12:14:42;2.67;;;1.55;;
8297;SDS011;4187;42.778;23.242;2023-02-01T12:20:01;17.40;;;10.50;;
8297;SDS011;4187;42.778;23.242;2023-02-01T12:22:32;5.45;;;3.33;;
8297;SDS011;4187;42.778;23.242;2023-02-01T12:27:50;3.70;;;2.35;;
8297;SDS011;4187;42.778;23.242;2023-02-01T12:30:32;3.25;;;2.38;;
8297;SDS011;4187;42.778;23.242;2023-02-01T12:33:03;3.58;;;2.72;;
8297;SDS011;4187;42.778;23.242;2023-02-01T12:35:44;7.18;;;3.20;;
8297;SDS011;4187;42.778;23.242;2023-02-01T12:38:29;6.00;;;2.50;;
8297;SDS011;4187;42.778;23.242;2023-02-01T12:41:05;2.33;;;2.13;;
8297;SDS011;4187;42.778;23.242;2023-02-01T12:43:36;7.93;;;2.83;;
8297;SDS011;4187;42.778;23.242;2023-02-01T12:46:06;2.45;;;2.25;;
8297;SDS011;4187;42.778;23.242;2023-02-01T12:48:34;8.18;;;2.78;;
8297;SDS011;4187;42.778;23.242;2023-02-01T12:51:04;1.95;;;1.63;;
8297;SDS011;4187;42.778;23.242;2023-02-01T12:53:33;3.50;;;2.22;;
8297;SDS011;4187;42.778;23.242;2023-02-01T12:56:06;2.38;;;1.85;;
8297;SDS011;4187;42.778;23.242;2023-02-01T12:58:36;2.88;;;1.67;;
8297;SDS011;4187;42.778;23.242;2023-02-01T13:01:05;3.08;;;2.10;;
8297;SDS011;4187;42.778;23.242;2023-02-01T13:03:34;2.65;;;2.03;;
8297;SDS011;4187;42.778;23.242;2023-02-01T13:06:05;22.67;;;8.55;;
8297;SDS011;4187;42.778;23.242;2023-02-01T13:08:36;5.28;;;1.88;;
8297;SDS011;4187;42.778;23.242;2023-02-01T13:11:06;2.72;;;1.95;;
8297;SDS011;4187;42.778;23.242;2023-02-01T13:13:36;3.35;;;1.65;;
8297;SDS011;4187;42.778;23.242;2023-02-01T13:16:12;14.13;;;6.65;;
8297;SDS011;4187;42.778;23.242;2023-02-01T13:18:41;3.53;;;2.15;;
8297;SDS011;4187;42.778;23.242;2023-02-01T13:21:12;3.25;;;1.80;;
8297;SDS011;4187;42.778;23.242;2023-02-01T13:23:41;2.53;;;1.70;;
8297;SDS011;4187;42.778;23.242;2023-02-01T13:26:08;3.00;;;1.85;;
8297;SDS011;4187;42.778;23.242;2023-02-01T13:28:36;2.80;;;2.08;;
8297;SDS011;4187;42.778;23.242;2023-02-01T13:33:52;2.78;;;1.92;;
8297;SDS011;4187;42.778;23.242;2023-02-01T13:36:30;5.63;;;2.70;;
8297;SDS011;4187;42.778;23.242;2023-02-01T13:41:42;3.85;;;2.38;;
8297;SDS011;4187;42.778;23.242;2023-02-01T13:44:21;2.85;;;2.22;;
8297;SDS011;4187;42.778;23.242;2023-02-01T13:46:50;9.35;;;4.97;;
8297;SDS011;4187;42.778;23.242;2023-02-01T13:49:20;3.10;;;2.30;;
8297;SDS011;4187;42.778;23.242;2023-02-01T13:51:50;3.40;;;2.40;;
8297;SDS011;4187;42.778;23.242;2023-02-01T13:54:24;17.77;;;7.50;;
8297;SDS011;4187;42.778;23.242;2023-02-01T13:56:51;2.95;;;2.22;;
8297;SDS011;4187;42.778;23.242;2023-02-01T14:04:46;3.58;;;2.55;;
8297;SDS011;4187;42.778;23.242;2023-02-01T14:07:21;4.13;;;3.60;;
8297;SDS011;4187;42.778;23.242;2023-02-01T14:09:48;2.53;;;1.88;;
8297;SDS011;4187;42.778;23.242;2023-02-01T14:17:59;5.07;;;2.40;;
8297;SDS011;4187;42.778;23.242;2023-02-01T14:23:29;2.92;;;2.20;;
8297;SDS011;4187;42.778;23.242;2023-02-01T14:26:04;2.00;;;1.80;;
8297;SDS011;4187;42.778;23.242;2023-02-01T14:28:32;2.03;;;1.67;;
8297;SDS011;4187;42.778;23.242;2023-02-01T14:31:01;2.85;;;1.92;;
8297;SDS011;4187;42.778;23.242;2023-02-01T14:33:40;5.28;;;2.08;;
8297;SDS011;4187;42.778;23.242;2023-02-01T14:36:09;3.08;;;2.00;;
8297;SDS011;4187;42.778;23.242;2023-02-01T14:38:38;4.53;;;2.00;;
8297;SDS011;4187;42.778;23.242;2023-02-01T14:41:13;2.67;;;1.90;;
8297;SDS011;4187;42.778;23.242;2023-02-01T14:43:49;2.45;;;1.90;;
8297;SDS011;4187;42.778;23.242;2023-02-01T14:46:15;7.72;;;5.70;;
8297;SDS011;4187;42.778;23.242;2023-02-01T14:48:43;6.45;;;5.22;;
8297;SDS011;4187;42.778;23.242;2023-02-01T14:51:11;5.53;;;4.83;;
8297;SDS011;4187;42.778;23.242;2023-02-01T14:53:41;4.32;;;3.65;;
8297;SDS011;4187;42.778;23.242;2023-02-01T14:56:11;3.47;;;2.60;;
8297;SDS011;4187;42.778;23.242;2023-02-01T14:58:40;3.53;;;2.97;;
8297;SDS011;4187;42.778;23.242;2023-02-01T15:01:15;4.47;;;3.40;;
8297;SDS011;4187;42.778;23.242;2023-02-01T15:03:48;4.50;;;2.80;;
8297;SDS011;4187;42.778;23.242;2023-02-01T15:09:00;3.60;;;2.40;;
8297;SDS011;4187;42.778;23.242;2023-02-01T15:11:27;3.87;;;2.27;;
8297;SDS011;4187;42.778;23.242;2023-02-01T15:13:54;4.40;;;2.40;;
8297;SDS011;4187;42.778;23.242;2023-02-01T15:16:22;3.80;;;2.67;;
8297;SDS011;4187;42.778;23.242;2023-02-01T15:18:49;5.17;;;2.20;;
8297;SDS011;4187;42.778;23.242;2023-02-01T15:21:17;4.07;;;2.33;;
8297;SDS011;4187;42.778;23.242;2023-02-01T15:23:44;2.97;;;2.30;;
8297;SDS011;4187;42.778;23.242;2023-02-01T15:26:25;3.17;;;2.17;;
8297;SDS011;4187;42.778;23.242;2023-02-01T15:28:52;5.73;;;2.27;;
8297;SDS011;4187;42.778;23.242;2023-02-01T15:31:30;2.17;;;1.73;;
8297;SDS011;4187;42.778;23.242;2023-02-01T15:33:57;3.07;;;2.00;;
8297;SDS011;4187;42.778;23.242;2023-02-01T15:36:23;3.43;;;2.83;;
8297;SDS011;4187;42.778;23.242;2023-02-01T15:41:35;2.60;;;2.27;;
8297;SDS011;4187;42.778;23.242;2023-02-01T15:44:03;2.73;;;1.77;;
8297;SDS011;4187;42.778;23.242;2023-02-01T15:46:31;2.87;;;1.90;;
8297;SDS011;4187;42.778;23.242;2023-02-01T15:48:58;3.43;;;2.00;;
8297;SDS011;4187;42.778;23.242;2023-02-01T15:51:25;2.70;;;1.97;;
8297;SDS011;4187;42.778;23.242;2023-02-01T15:53:54;3.03;;;1.90;;
8297;SDS011;4187;42.778;23.242;2023-02-01T15:56:22;3.40;;;2.40;;
8297;SDS011;4187;42.778;23.242;2023-02-01T15:58:51;3.17;;;2.10;;
8297;SDS011;4187;42.778;23.242;2023-02-01T16:01:18;4.90;;;2.30;;
8297;SDS011;4187;42.778;23.242;2023-02-01T16:04:02;2.77;;;2.30;;
8297;SDS011;4187;42.778;23.242;2023-02-01T16:06:29;2.70;;;2.17;;